createdAt,value
2023-02-02T00:01:44.988Z,34.75
2023-02-02T00:04:26.520Z,37.20
2023-02-02T00:06:54.187Z,26.10
2023-02-02T00:09:21.553Z,35.75
2023-02-02T00:11:50.392Z,29.30
2023-02-02T00:14:18.418Z,35.58
2023-02-02T00:16:47.934Z,28.90
2023-02-02T00:19:17.911Z,26.08
2023-02-02T00:21:45.822Z,36.45
2023-02-02T00:24:14.699Z,38.65
2023-02-02T00:26:42.892Z,30.48
2023-02-02T00:29:18.852Z,28.48
2023-02-02T00:31:46.090Z,41.28
2023-02-02T00:34:14.777Z,43.17
2023-02-02T00:36:42.715Z,49.40
2023-02-02T00:39:11.425Z,21.65
2023-02-02T00:41:38.237Z,24.80
2023-02-02T00:44:23.643Z,29.33
2023-02-02T00:46:50.423Z,28.42
2023-02-02T00:49:17.277Z,22.80
2023-02-02T00:51:44.080Z,28.10
2023-02-02T00:54:10.977Z,27.50
2023-02-02T00:56:37.809Z,25.88
2023-02-02T00:59:04.750Z,17.65
2023-02-02T01:01:31.641Z,34.28
2023-02-02T01:03:59.143Z,21.77
2023-02-02T01:06:26.343Z,30.55
2023-02-02T01:08:53.793Z,34.50
2023-02-02T01:11:21.022Z,15.70
2023-02-02T01:13:47.924Z,13.75
2023-02-02T01:16:15.892Z,46.83
2023-02-02T01:18:43.390Z,24.55
2023-02-02T01:21:12.270Z,20.50
2023-02-02T01:23:39.765Z,20.67
2023-02-02T01:26:09.356Z,19.85
2023-02-02T01:28:36.511Z,20.77
2023-02-02T01:31:09.303Z,14.70
2023-02-02T01:33:36.230Z,17.65
2023-02-02T01:36:06.161Z,12.52
2023-02-02T01:38:33.687Z,20.40
2023-02-02T01:41:00.822Z,23.63
2023-02-02T01:43:44.185Z,28.17
2023-02-02T01:46:19.162Z,12.63
2023-02-02T01:48:56.807Z,11.75
2023-02-02T01:51:36.654Z,14.48
2023-02-02T01:54:06.707Z,7.93
2023-02-02T01:56:41.315Z,16.20
2023-02-02T01:59:09.631Z,13.02
2023-02-02T02:01:36.465Z,22.45
2023-02-02T02:04:03.670Z,11.50
2023-02-02T02:06:30.792Z,26.05
2023-02-02T02:09:03.699Z,16.55
2023-02-02T02:11:32.145Z,13.70
2023-02-02T02:14:20.872Z,11.65
2023-02-02T02:17:21.638Z,14.95
2023-02-02T02:20:31.651Z,19.63
2023-02-02T02:23:43.420Z,12.90
2023-02-02T02:26:35.252Z,14.15
2023-02-02T02:29:40.673Z,12.43
2023-02-02T02:32:27.283Z,8.65
2023-02-02T02:35:16.567Z,14.88
2023-02-02T02:38:01.240Z,18.02
2023-02-02T02:40:51.429Z,13.07
2023-02-02T02:43:37.933Z,32.30
2023-02-02T02:46:06.076Z,26.88
2023-02-02T02:48:33.138Z,17.92
2023-02-02T02:51:29.905Z,12.80
2023-02-02T02:53:56.956Z,15.48
2023-02-02T02:56:40.261Z,22.65
2023-02-02T02:59:24.604Z,21.70
2023-02-02T03:02:17.024Z,31.23
2023-02-02T03:04:49.021Z,10.27
2023-02-02T03:07:27.965Z,13.73
2023-02-02T03:09:57.749Z,22.55
2023-02-02T03:12:24.808Z,11.43
2023-02-02T03:14:53.564Z,22.92
2023-02-02T03:17:20.354Z,10.32
2023-02-02T03:19:47.527Z,22.58
2023-02-02T03:22:14.328Z,17.65
2023-02-02T03:24:41.100Z,24.13
2023-02-02T03:27:07.918Z,10.65
2023-02-02T03:29:34.708Z,18.63
2023-02-02T03:32:01.657Z,14.65
2023-02-02T03:34:28.867Z,11.32
2023-02-02T03:36:55.707Z,24.08
2023-02-02T03:39:22.459Z,19.83
2023-02-02T03:41:49.345Z,13.52
2023-02-02T03:44:16.158Z,23.73
2023-02-02T03:46:43.004Z,11.93
2023-02-02T03:49:10.662Z,24.00
2023-02-02T03:51:37.512Z,21.55
2023-02-02T03:54:04.861Z,25.90
2023-02-02T03:56:31.619Z,17.70
2023-02-02T03:58:58.370Z,38.35
2023-02-02T04:01:29.935Z,23.83
2023-02-02T04:03:57.828Z,14.13
2023-02-02T04:06:25.825Z,24.42
2023-02-02T04:08:53.207Z,15.95
2023-02-02T04:11:19.995Z,34.35
2023-02-02T04:13:46.841Z,22.60
2023-02-02T04:16:13.816Z,39.80
2023-02-02T04:18:40.773Z,24.30
2023-02-02T04:21:08.650Z,29.55
2023-02-02T04:23:35.825Z,24.40
2023-02-02T04:26:02.970Z,37.33
2023-02-02T04:28:29.784Z,27.23
2023-02-02T04:30:57.055Z,26.52
2023-02-02T04:33:26.389Z,24.92
2023-02-02T04:35:53.493Z,22.35
2023-02-02T04:38:20.452Z,17.17
2023-02-02T04:40:48.649Z,15.20
2023-02-02T04:43:15.424Z,18.15
2023-02-02T04:45:42.561Z,26.55
2023-02-02T04:48:09.490Z,26.60
2023-02-02T04:50:36.373Z,21.30
2023-02-02T04:53:04.185Z,24.38
2023-02-02T04:55:31.003Z,16.85
2023-02-02T04:57:57.764Z,17.23
2023-02-02T05:00:24.809Z,25.75
2023-02-02T05:02:51.619Z,18.63
2023-02-02T05:05:18.507Z,11.95
2023-02-02T05:07:45.413Z,27.20
2023-02-02T05:10:12.402Z,30.65
2023-02-02T05:12:39.230Z,17.67
2023-02-02T05:15:06.809Z,18.48
2023-02-02T05:17:33.634Z,19.20
2023-02-02T05:20:00.484Z,19.10
2023-02-02T05:22:27.500Z,19.55
2023-02-02T05:24:54.487Z,26.70
2023-02-02T05:27:21.294Z,12.18
2023-02-02T05:29:48.434Z,25.75
2023-02-02T05:32:15.706Z,17.50
2023-02-02T05:34:42.539Z,15.85
2023-02-02T05:37:09.307Z,24.52
2023-02-02T05:39:36.118Z,10.68
2023-02-02T05:42:02.967Z,38.33
2023-02-02T05:44:29.712Z,49.28
2023-02-02T05:46:56.527Z,21.23
2023-02-02T05:49:23.419Z,15.20
2023-02-02T05:51:57.140Z,24.95
2023-02-02T05:54:24.632Z,27.25
2023-02-02T05:56:53.169Z,23.08
2023-02-02T05:59:20.281Z,40.10
2023-02-02T06:01:47.551Z,21.83
2023-02-02T06:04:15.340Z,29.55
2023-02-02T06:06:42.361Z,24.88
2023-02-02T06:09:09.718Z,27.20
2023-02-02T06:11:36.655Z,25.65
2023-02-02T06:14:03.439Z,25.80
2023-02-02T06:16:30.256Z,24.63
2023-02-02T06:18:57.345Z,17.98
2023-02-02T06:21:24.831Z,12.80
2023-02-02T06:23:52.437Z,21.88
2023-02-02T06:26:19.951Z,18.00
2023-02-02T06:28:54.225Z,18.35
2023-02-02T06:31:21.782Z,19.40
2023-02-02T06:33:54.160Z,19.63
2023-02-02T06:36:21.359Z,21.98
2023-02-02T06:38:52.283Z,18.67
2023-02-02T06:41:20.408Z,16.27
2023-02-02T06:43:48.196Z,14.98
2023-02-02T06:46:16.102Z,34.15
2023-02-02T06:48:43.034Z,21.88
2023-02-02T06:51:09.845Z,18.20
2023-02-02T06:53:36.682Z,24.65
2023-02-02T06:56:06.195Z,16.38
2023-02-02T06:58:33.854Z,15.63
2023-02-02T07:01:09.458Z,19.80
2023-02-02T07:03:37.124Z,19.30
2023-02-02T07:06:18.097Z,20.80
2023-02-02T07:08:45.423Z,14.40
2023-02-02T07:11:18.960Z,14.30
2023-02-02T07:13:46.715Z,22.73
2023-02-02T07:16:14.783Z,25.92
2023-02-02T07:18:44.893Z,17.38
2023-02-02T07:21:18.620Z,19.23
2023-02-02T07:23:45.896Z,32.00
2023-02-02T07:26:14.566Z,13.27
2023-02-02T07:28:41.505Z,32.50
2023-02-02T07:31:20.817Z,21.25
2023-02-02T07:33:48.868Z,16.20
2023-02-02T07:36:19.011Z,28.27
2023-02-02T07:38:47.797Z,16.42
2023-02-02T07:41:15.788Z,15.15
2023-02-02T07:43:42.691Z,22.50
2023-02-02T07:46:12.756Z,22.92
2023-02-02T07:48:40.711Z,28.23
2023-02-02T07:51:11.448Z,19.95
2023-02-02T07:53:38.797Z,13.70
2023-02-02T07:56:26.576Z,18.25
2023-02-02T07:58:55.009Z,27.42
2023-02-02T08:01:23.235Z,26.35
2023-02-02T08:03:50.824Z,22.60
2023-02-02T08:06:22.284Z,24.40
2023-02-02T08:08:49.498Z,17.38
2023-02-02T08:11:18.789Z,15.60
2023-02-02T08:13:49.762Z,16.83
2023-02-02T08:16:17.022Z,15.90
2023-02-02T08:18:44.011Z,17.80
2023-02-02T08:21:12.072Z,18.73
2023-02-02T08:23:40.077Z,21.38
2023-02-02T08:26:09.970Z,19.63
2023-02-02T08:28:37.153Z,23.67
2023-02-02T08:31:09.540Z,20.92
2023-02-02T08:33:36.890Z,26.33
2023-02-02T08:36:04.684Z,16.23
2023-02-02T08:38:31.738Z,20.40
2023-02-02T08:41:05.785Z,28.85
2023-02-02T08:43:32.822Z,19.05
2023-02-02T08:46:05.029Z,29.63
2023-02-02T08:48:32.539Z,29.67
2023-02-02T08:50:59.817Z,32.08
2023-02-02T08:53:27.545Z,19.13
2023-02-02T08:56:01.032Z,28.63
2023-02-02T08:58:28.579Z,15.57
2023-02-02T09:00:55.888Z,31.45
2023-02-02T09:03:22.875Z,40.72
2023-02-02T09:05:49.731Z,33.72
2023-02-02T09:08:16.876Z,18.77
2023-02-02T09:10:43.714Z,17.02
2023-02-02T09:13:10.519Z,28.80
2023-02-02T09:15:38.674Z,16.27
2023-02-02T09:18:05.525Z,16.50
2023-02-02T09:20:32.471Z,28.17
2023-02-02T09:22:59.245Z,12.85
2023-02-02T09:25:29.786Z,26.13
2023-02-02T09:27:56.697Z,15.82
2023-02-02T09:30:23.512Z,17.70
2023-02-02T09:32:51.037Z,12.60
2023-02-02T09:35:17.918Z,15.07
2023-02-02T09:37:45.452Z,23.95
2023-02-02T09:40:20.989Z,15.05
2023-02-02T09:43:00.043Z,14.07
2023-02-02T09:45:51.730Z,11.45
2023-02-02T09:48:34.798Z,12.40
2023-02-02T09:51:25.858Z,12.52
2023-02-02T09:54:04.769Z,8.07
2023-02-02T09:56:57.729Z,8.45
2023-02-02T09:59:33.721Z,8.82
2023-02-02T10:02:13.745Z,7.32
2023-02-02T10:04:45.071Z,10.18
2023-02-02T10:07:19.833Z,9.00
2023-02-02T10:10:26.644Z,5.47
2023-02-02T10:12:53.340Z,15.32
2023-02-02T10:15:44.543Z,10.15
2023-02-02T10:18:29.682Z,11.90
2023-02-02T10:21:02.797Z,7.13
2023-02-02T10:23:38.858Z,18.00
2023-02-02T10:26:15.206Z,9.15
2023-02-02T10:29:12.692Z,9.02
2023-02-02T10:31:42.890Z,10.35
2023-02-02T10:34:15.900Z,10.30
2023-02-02T10:36:49.809Z,15.55
2023-02-02T10:39:38.035Z,12.40
2023-02-02T10:42:14.012Z,8.50
2023-02-02T10:44:40.714Z,12.38
2023-02-02T10:47:15.993Z,9.18
2023-02-02T10:52:18.474Z,10.65
2023-02-02T10:55:02.200Z,6.32
2023-02-02T10:57:39.361Z,10.60
2023-02-02T11:00:37.516Z,14.15
2023-02-02T11:03:07.112Z,16.05
2023-02-02T11:05:52.594Z,13.00
2023-02-02T11:08:48.759Z,4.40
2023-02-02T11:11:29.581Z,6.70
2023-02-02T11:14:03.429Z,9.00
2023-02-02T11:16:42.015Z,9.98
2023-02-02T11:19:19.804Z,16.02
2023-02-02T11:21:54.082Z,9.15
2023-02-02T11:24:28.523Z,7.20
2023-02-02T11:27:19.635Z,6.53
2023-02-02T11:29:52.629Z,10.95
2023-02-02T11:32:25.719Z,10.40
2023-02-02T11:35:08.130Z,7.43
2023-02-02T11:37:49.740Z,13.35
2023-02-02T11:40:30.864Z,7.25
2023-02-02T11:43:19.138Z,12.88
2023-02-02T11:45:49.913Z,12.55
2023-02-02T11:48:22.918Z,10.55
2023-02-02T11:50:55.590Z,7.00
2023-02-02T11:53:27.478Z,8.10
2023-02-02T11:55:56.301Z,8.50
2023-02-02T11:58:42.669Z,4.68
2023-02-02T12:01:30.133Z,6.47
2023-02-02T12:03:59.532Z,9.57
2023-02-02T12:06:37.269Z,4.57
2023-02-02T12:09:26.491Z,8.30
2023-02-02T12:12:13.389Z,7.25
2023-02-02T12:14:55.015Z,4.82
2023-02-02T12:17:40.550Z,11.75
2023-02-02T12:20:36.993Z,6.05
2023-02-02T12:23:19.261Z,4.90
2023-02-02T12:25:59.106Z,7.50
2023-02-02T12:28:25.880Z,13.55
2023-02-02T12:31:17.648Z,11.43
2023-02-02T12:34:12.103Z,6.85
2023-02-02T12:36:47.882Z,9.02
2023-02-02T12:39:37.189Z,4.35
2023-02-02T12:42:29.005Z,3.85
2023-02-02T12:45:41.098Z,5.25
2023-02-02T12:48:43.212Z,11.23
2023-02-02T12:51:35.578Z,4.85
2023-02-02T12:54:33.435Z,6.82
2023-02-02T12:57:22.062Z,10.82
2023-02-02T13:00:13.449Z,3.78
2023-02-02T13:03:08.101Z,6.82
2023-02-02T13:05:40.747Z,6.57
2023-02-02T13:08:15.251Z,6.78
2023-02-02T13:10:47.221Z,2.95
2023-02-02T13:13:16.819Z,5.00
2023-02-02T13:15:48.102Z,5.75
2023-02-02T13:18:27.532Z,9.40
2023-02-02T13:21:16.895Z,3.90
2023-02-02T13:23:50.420Z,3.58
2023-02-02T13:26:35.003Z,5.43
2023-02-02T13:29:24.809Z,6.00
2023-02-02T13:32:14.827Z,9.63
2023-02-02T13:34:56.893Z,5.53
2023-02-02T13:37:45.014Z,6.15
2023-02-02T13:40:21.074Z,7.07
2023-02-02T13:43:26.182Z,11.45
2023-02-02T13:46:01.941Z,10.27
2023-02-02T13:49:04.512Z,7.25
2023-02-02T13:52:04.947Z,7.20
2023-02-02T13:54:50.580Z,8.10
2023-02-02T14:00:04.790Z,6.78
2023-02-02T14:02:34.506Z,31.50
2023-02-02T14:05:04.538Z,11.57
2023-02-02T14:07:47.088Z,7.15
2023-02-02T14:10:34.498Z,9.07
2023-02-02T14:13:33.160Z,7.78
2023-02-02T14:16:05.525Z,5.72
2023-02-02T14:18:50.882Z,5.30
2023-02-02T14:21:33.516Z,7.45
2023-02-02T14:24:28.841Z,8.45
2023-02-02T14:26:58.858Z,14.05
2023-02-02T14:29:31.924Z,6.00
2023-02-02T14:32:03.153Z,8.05
2023-02-02T14:34:36.006Z,10.70
2023-02-02T14:37:14.780Z,3.50
2023-02-02T14:40:00.548Z,12.13
2023-02-02T14:43:08.981Z,5.53
2023-02-02T14:45:48.976Z,6.38
2023-02-02T14:48:23.958Z,4.72
2023-02-02T14:50:56.330Z,5.13
2023-02-02T14:53:30.640Z,8.30
2023-02-02T14:56:16.498Z,4.53
2023-02-02T14:59:00.935Z,8.85
2023-02-02T15:01:36.899Z,5.88
2023-02-02T15:04:22.398Z,4.70
2023-02-02T15:06:52.671Z,6.93
2023-02-02T15:09:28.782Z,6.03
2023-02-02T15:12:14.667Z,8.45
2023-02-02T15:15:08.152Z,5.18
2023-02-02T15:17:41.423Z,7.55
2023-02-02T15:20:27.065Z,4.57
2023-02-02T15:23:22.401Z,7.47
2023-02-02T15:25:57.870Z,14.93
2023-02-02T15:28:24.675Z,9.02
2023-02-02T15:31:07.658Z,7.95
2023-02-02T15:33:39.649Z,27.05
2023-02-02T15:36:16.115Z,12.52
2023-02-02T15:38:44.549Z,14.05
2023-02-02T15:41:21.356Z,14.45
2023-02-02T15:43:48.354Z,6.50
2023-02-02T15:46:26.306Z,9.43
2023-02-02T15:49:34.911Z,15.85
2023-02-02T15:52:15.436Z,12.35
2023-02-02T15:54:57.327Z,10.25
2023-02-02T15:57:27.397Z,8.52
2023-02-02T15:59:54.420Z,8.85
2023-02-02T16:02:29.433Z,6.95
2023-02-02T16:07:33.878Z,8.57
2023-02-02T16:10:08.155Z,12.95
2023-02-02T16:12:35.764Z,10.07
2023-02-02T16:15:02.870Z,12.25
2023-02-02T16:17:32.588Z,13.43
2023-02-02T16:20:15.854Z,11.77
2023-02-02T16:22:46.503Z,9.70
2023-02-02T16:25:18.884Z,13.32
2023-02-02T16:27:48.382Z,11.00
2023-02-02T16:30:29.738Z,12.77
2023-02-02T16:32:56.783Z,8.25
2023-02-02T16:35:53.060Z,15.10
2023-02-02T16:38:25.116Z,6.82
2023-02-02T16:41:14.331Z,14.30
2023-02-02T16:43:43.094Z,10.15
2023-02-02T16:46:45.126Z,11.95
2023-02-02T16:49:22.544Z,10.30
2023-02-02T16:52:08.003Z,21.27
2023-02-02T16:57:04.122Z,11.32
2023-02-02T16:59:36.136Z,8.98
2023-02-02T17:02:20.979Z,6.25
2023-02-02T17:05:28.934Z,10.57
2023-02-02T17:08:04.819Z,8.70
2023-02-02T17:10:38.071Z,7.35
2023-02-02T17:13:31.025Z,10.90
2023-02-02T17:15:58.943Z,9.02
2023-02-02T17:18:26.278Z,9.77
2023-02-02T17:21:03.752Z,5.55
2023-02-02T17:23:32.435Z,13.10
2023-02-02T17:25:59.848Z,14.95
2023-02-02T17:28:27.395Z,18.23
2023-02-02T17:30:59.443Z,7.57
2023-02-02T17:33:27.017Z,20.35
2023-02-02T17:35:56.264Z,6.63
2023-02-02T17:38:24.915Z,10.18
2023-02-02T17:40:52.852Z,4.80
2023-02-02T17:43:19.851Z,7.55
2023-02-02T17:45:46.722Z,11.88
2023-02-02T17:48:14.715Z,6.38
2023-02-02T17:50:42.870Z,4.43
2023-02-02T17:53:33.306Z,3.63
2023-02-02T17:56:00.551Z,11.70
2023-02-02T17:58:27.873Z,9.90
2023-02-02T18:00:58.991Z,10.40
2023-02-02T18:03:34.327Z,9.45
2023-02-02T18:06:02.023Z,5.43
2023-02-02T18:08:30.682Z,5.53
2023-02-02T18:10:59.715Z,9.20
2023-02-02T18:13:26.875Z,8.18
2023-02-02T18:15:56.255Z,6.35
2023-02-02T18:18:23.239Z,10.88
2023-02-02T18:20:51.425Z,6.95
2023-02-02T18:23:19.629Z,9.10
2023-02-02T18:25:46.735Z,10.25
2023-02-02T18:28:17.272Z,15.20
2023-02-02T18:30:45.644Z,13.77
2023-02-02T18:33:13.766Z,12.55
2023-02-02T18:35:47.433Z,22.17
2023-02-02T18:38:15.037Z,10.88
2023-02-02T18:40:42.601Z,12.88
2023-02-02T18:43:11.362Z,19.15
2023-02-02T18:45:38.158Z,24.35
2023-02-02T18:48:05.079Z,16.15
2023-02-02T18:50:31.961Z,12.38
2023-02-02T18:53:01.349Z,11.10
2023-02-02T18:55:28.520Z,13.60
2023-02-02T18:57:55.566Z,12.57
2023-02-02T19:00:22.562Z,44.67
2023-02-02T19:02:49.557Z,15.82
2023-02-02T19:05:34.934Z,22.52
2023-02-02T19:10:32.743Z,14.60
2023-02-02T19:13:06.504Z,18.25
2023-02-02T19:15:37.076Z,14.65
2023-02-02T19:18:13.731Z,21.75
2023-02-02T19:20:40.930Z,12.15
2023-02-02T19:23:13.541Z,19.42
2023-02-02T19:25:42.287Z,12.45
2023-02-02T19:28:31.184Z,13.95
2023-02-02T19:31:00.861Z,13.95
2023-02-02T19:33:41.664Z,25.65
2023-02-02T19:36:15.402Z,18.65
2023-02-02T19:38:42.777Z,11.15
2023-02-02T19:41:21.439Z,13.27
2023-02-02T19:43:49.785Z,13.77
2023-02-02T19:46:22.974Z,10.10
2023-02-02T19:48:53.867Z,23.48
2023-02-02T19:51:39.749Z,8.05
2023-02-02T19:54:41.062Z,12.95
2023-02-02T19:57:31.175Z,15.95
2023-02-02T20:00:00.325Z,7.38
2023-02-02T20:02:51.272Z,10.30
2023-02-02T20:05:27.588Z,8.75
2023-02-02T20:08:02.095Z,12.95
2023-02-02T20:10:47.571Z,11.65
2023-02-02T20:13:26.202Z,16.75
2023-02-02T20:16:03.570Z,9.63
2023-02-02T20:18:46.457Z,12.90
2023-02-02T20:21:42.187Z,14.20
2023-02-02T20:26:46.612Z,6.70
2023-02-02T20:29:28.305Z,8.73
2023-02-02T20:31:58.562Z,10.48
2023-02-02T20:34:35.668Z,6.57
2023-02-02T20:37:15.477Z,15.65
2023-02-02T20:39:47.796Z,15.13
2023-02-02T20:42:15.338Z,9.13
2023-02-02T20:44:42.520Z,15.55
2023-02-02T20:47:09.568Z,10.63
2023-02-02T20:49:38.728Z,13.85
2023-02-02T20:52:10.957Z,19.60
2023-02-02T20:54:39.327Z,14.38
2023-02-02T20:57:07.008Z,12.45
2023-02-02T20:59:33.918Z,10.88
2023-02-02T21:02:01.303Z,16.95
2023-02-02T21:04:28.224Z,11.95
2023-02-02T21:06:55.738Z,16.23
2023-02-02T21:09:22.647Z,10.52
2023-02-02T21:11:49.642Z,14.57
2023-02-02T21:14:16.943Z,12.35
2023-02-02T21:16:43.737Z,14.73
2023-02-02T21:19:11.016Z,9.55
2023-02-02T21:21:38.038Z,8.60
2023-02-02T21:24:05.863Z,16.85
2023-02-02T21:26:32.639Z,11.60
2023-02-02T21:28:59.571Z,18.00
2023-02-02T21:31:27.231Z,14.82
2023-02-02T21:33:54.306Z,8.07
2023-02-02T21:36:29.987Z,22.58
2023-02-02T21:39:16.087Z,8.55
2023-02-02T21:41:43.030Z,7.68
2023-02-02T21:44:22.411Z,7.40
2023-02-02T21:46:51.430Z,5.47
2023-02-02T21:49:24.966Z,5.15
2023-02-02T21:51:55.948Z,8.25
2023-02-02T21:54:27.126Z,9.95
2023-02-02T21:56:55.225Z,16.55
2023-02-02T21:59:24.699Z,8.90
2023-02-02T22:01:52.560Z,11.70
2023-02-02T22:04:22.586Z,13.20
2023-02-02T22:06:53.276Z,12.35
2023-02-02T22:09:25.186Z,8.82
2023-02-02T22:12:01.510Z,21.08
2023-02-02T22:14:38.351Z,9.15
2023-02-02T22:17:26.064Z,16.30
2023-02-02T22:20:14.496Z,6.28
2023-02-02T22:22:48.079Z,7.20
2023-02-02T22:25:17.842Z,17.33
2023-02-02T22:27:51.496Z,12.73
2023-02-02T22:30:18.282Z,5.97
2023-02-02T22:32:45.087Z,10.40
2023-02-02T22:35:11.927Z,7.28
2023-02-02T22:37:39.384Z,10.98
2023-02-02T22:40:06.731Z,7.30
2023-02-02T22:42:34.064Z,8.82
2023-02-02T22:45:00.806Z,13.15
2023-02-02T22:47:27.886Z,6.15
2023-02-02T22:49:54.772Z,6.63
2023-02-02T22:52:21.667Z,13.57
2023-02-02T22:54:49.080Z,10.05
2023-02-02T22:57:15.877Z,13.43
2023-02-02T22:59:42.771Z,7.95
2023-02-02T23:02:09.611Z,12.80
2023-02-02T23:04:37.305Z,16.08
2023-02-02T23:07:04.156Z,8.40
2023-02-02T23:09:30.926Z,10.88
2023-02-02T23:11:57.709Z,8.13
2023-02-02T23:14:24.564Z,6.28
2023-02-02T23:16:51.431Z,10.57
2023-02-02T23:19:18.623Z,9.70
2023-02-02T23:21:45.345Z,6.15
2023-02-02T23:24:12.301Z,11.10
2023-02-02T23:26:42.201Z,14.32
2023-02-02T23:29:09.090Z,14.07
2023-02-02T23:31:35.959Z,8.52
2023-02-02T23:34:02.758Z,9.77
2023-02-02T23:36:29.555Z,6.20
2023-02-02T23:38:56.267Z,16.50
2023-02-02T23:41:23.139Z,12.82
2023-02-02T23:43:50.319Z,17.67
2023-02-02T23:46:18.141Z,10.43
2023-02-02T23:48:45.696Z,12.00
2023-02-02T23:51:13.160Z,7.22
2023-02-02T23:53:40.914Z,15.95
2023-02-02T23:56:07.744Z,9.98
2023-02-02T23:58:34.547Z,10.85
